Terminal Aerodrome Forecast
Issued by NWS

Home | Current Version | Previous Version | Text Only | Print | Product List | Glossary On
Versions: 1 2 3 4 5 6 7 8 9 10 11 12 13 14 15
950
FTUS43 KMQT 230540
TAFCMX
TAF
KCMX 230540Z 2306/2406 28007KT P6SM SCT150
     FM231300 27012KT P6SM FEW150
     FM231600 28018G28KT P6SM SCT050
     FM232300 28015G23KT P6SM SCT050
     FM240100 28012KT P6SM SCT060
     FM240400 29010KT P6SM BKN070=

USA.gov is the U.S. government's official web portal to all federal, state and local government web resources and services.